sensor_id;sensor_type;location;lat;lon;timestamp;pressure;altitude;pressure_sealevel;temperature;humidity
21545;BME280;10933;50.754;11.508;2023-08-08T00:02:17;101280.53;;;8.31;100.00
21545;BME280;10933;50.754;11.508;2023-08-08T00:04:43;101286.63;;;8.39;100.00
21545;BME280;10933;50.754;11.508;2023-08-08T00:07:09;101281.69;;;8.43;100.00
21545;BME280;10933;50.754;11.508;2023-08-08T00:09:36;101288.78;;;8.50;100.00
21545;BME280;10933;50.754;11.508;2023-08-08T00:12:03;101277.19;;;8.50;100.00
21545;BME280;10933;50.754;11.508;2023-08-08T00:14:29;101273.00;;;8.41;100.00
21545;BME280;10933;50.754;11.508;2023-08-08T00:16:56;101266.69;;;8.34;100.00
21545;BME280;10933;50.754;11.508;2023-08-08T00:19:22;101253.91;;;8.14;100.00
21545;BME280;10933;50.754;11.508;2023-08-08T00:21:48;101259.28;;;8.14;100.00
21545;BME280;10933;50.754;11.508;2023-08-08T00:24:14;101260.69;;;8.10;100.00
21545;BME280;10933;50.754;11.508;2023-08-08T00:26:40;101253.25;;;8.12;100.00
21545;BME280;10933;50.754;11.508;2023-08-08T00:29:06;101253.97;;;8.21;100.00
21545;BME280;10933;50.754;11.508;2023-08-08T00:31:32;101238.03;;;8.19;100.00
21545;BME280;10933;50.754;11.508;2023-08-08T00:33:58;101243.00;;;8.22;100.00
21545;BME280;10933;50.754;11.508;2023-08-08T00:36:24;101247.16;;;8.25;100.00
21545;BME280;10933;50.754;11.508;2023-08-08T00:38:51;101250.31;;;8.29;100.00
21545;BME280;10933;50.754;11.508;2023-08-08T00:41:17;101235.56;;;8.24;100.00
21545;BME280;10933;50.754;11.508;2023-08-08T00:43:43;101231.44;;;8.22;100.00
21545;BME280;10933;50.754;11.508;2023-08-08T00:46:09;101226.88;;;8.22;100.00
21545;BME280;10933;50.754;11.508;2023-08-08T00:48:36;101231.16;;;8.38;100.00
21545;BME280;10933;50.754;11.508;2023-08-08T00:51:02;101227.47;;;8.39;100.00
21545;BME280;10933;50.754;11.508;2023-08-08T00:53:28;101230.78;;;8.41;100.00
21545;BME280;10933;50.754;11.508;2023-08-08T00:55:58;101223.66;;;8.34;100.00
21545;BME280;10933;50.754;11.508;2023-08-08T00:58:24;101221.56;;;8.29;100.00
21545;BME280;10933;50.754;11.508;2023-08-08T01:00:51;101210.31;;;8.19;100.00
21545;BME280;10933;50.754;11.508;2023-08-08T01:03:20;101210.94;;;8.21;100.00
21545;BME280;10933;50.754;11.508;2023-08-08T01:08:54;101209.16;;;8.28;100.00
21545;BME280;10933;50.754;11.508;2023-08-08T01:11:23;101203.72;;;8.21;100.00
21545;BME280;10933;50.754;11.508;2023-08-08T01:13:52;101199.97;;;8.16;100.00
21545;BME280;10933;50.754;11.508;2023-08-08T01:16:20;101207.88;;;8.24;100.00
21545;BME280;10933;50.754;11.508;2023-08-08T01:18:48;101207.03;;;8.23;100.00
21545;BME280;10933;50.754;11.508;2023-08-08T01:21:16;101205.72;;;8.34;100.00
21545;BME280;10933;50.754;11.508;2023-08-08T01:26:42;101221.53;;;8.50;100.00
21545;BME280;10933;50.754;11.508;2023-08-08T01:29:08;101218.28;;;8.34;100.00
21545;BME280;10933;50.754;11.508;2023-08-08T01:31:34;101225.41;;;8.41;100.00
21545;BME280;10933;50.754;11.508;2023-08-08T01:34:01;101226.91;;;8.50;100.00
21545;BME280;10933;50.754;11.508;2023-08-08T01:36:39;101238.69;;;8.49;100.00
21545;BME280;10933;50.754;11.508;2023-08-08T01:39:13;101239.72;;;8.48;100.00
21545;BME280;10933;50.754;11.508;2023-08-08T01:41:40;101244.91;;;8.50;100.00
21545;BME280;10933;50.754;11.508;2023-08-08T01:44:08;101259.03;;;8.52;100.00
21545;BME280;10933;50.754;11.508;2023-08-08T01:46:34;101250.69;;;8.47;100.00
21545;BME280;10933;50.754;11.508;2023-08-08T01:49:02;101252.75;;;8.45;100.00
21545;BME280;10933;50.754;11.508;2023-08-08T01:51:28;101251.09;;;8.44;100.00
21545;BME280;10933;50.754;11.508;2023-08-08T01:53:55;101249.63;;;8.41;100.00
21545;BME280;10933;50.754;11.508;2023-08-08T01:56:21;101244.53;;;8.32;100.00
21545;BME280;10933;50.754;11.508;2023-08-08T01:58:47;101247.13;;;8.18;100.00
21545;BME280;10933;50.754;11.508;2023-08-08T02:01:13;101242.91;;;8.09;100.00
21545;BME280;10933;50.754;11.508;2023-08-08T02:03:39;101236.97;;;8.14;100.00
21545;BME280;10933;50.754;11.508;2023-08-08T02:06:05;101223.69;;;8.12;100.00
21545;BME280;10933;50.754;11.508;2023-08-08T02:08:31;101207.31;;;8.07;100.00
21545;BME280;10933;50.754;11.508;2023-08-08T02:10:57;101210.25;;;8.12;100.00
21545;BME280;10933;50.754;11.508;2023-08-08T02:13:23;101204.88;;;8.12;100.00
21545;BME280;10933;50.754;11.508;2023-08-08T02:15:49;101202.38;;;8.11;100.00
21545;BME280;10933;50.754;11.508;2023-08-08T02:18:16;101191.59;;;8.04;100.00
21545;BME280;10933;50.754;11.508;2023-08-08T02:20:42;101184.38;;;8.05;100.00
21545;BME280;10933;50.754;11.508;2023-08-08T02:23:08;101177.91;;;7.99;100.00
21545;BME280;10933;50.754;11.508;2023-08-08T02:25:34;101174.38;;;7.98;100.00
21545;BME280;10933;50.754;11.508;2023-08-08T02:28:00;101176.69;;;8.02;100.00
21545;BME280;10933;50.754;11.508;2023-08-08T02:30:26;101170.84;;;7.98;100.00
21545;BME280;10933;50.754;11.508;2023-08-08T02:32:52;101173.69;;;7.90;100.00
21545;BME280;10933;50.754;11.508;2023-08-08T02:35:18;101175.50;;;7.83;100.00
21545;BME280;10933;50.754;11.508;2023-08-08T02:37:44;101167.44;;;7.83;100.00
21545;BME280;10933;50.754;11.508;2023-08-08T02:40:10;101166.84;;;7.87;100.00
21545;BME280;10933;50.754;11.508;2023-08-08T02:42:37;101159.38;;;7.83;100.00
21545;BME280;10933;50.754;11.508;2023-08-08T02:45:03;101157.19;;;7.93;100.00
21545;BME280;10933;50.754;11.508;2023-08-08T02:47:29;101155.09;;;7.88;100.00
21545;BME280;10933;50.754;11.508;2023-08-08T02:49:55;101162.97;;;7.90;100.00
21545;BME280;10933;50.754;11.508;2023-08-08T02:52:21;101163.09;;;7.82;100.00
21545;BME280;10933;50.754;11.508;2023-08-08T02:54:47;101163.31;;;7.87;100.00
21545;BME280;10933;50.754;11.508;2023-08-08T02:57:13;101153.88;;;7.91;100.00
21545;BME280;10933;50.754;11.508;2023-08-08T02:59:40;101147.16;;;8.08;100.00
21545;BME280;10933;50.754;11.508;2023-08-08T03:02:06;101129.81;;;8.11;100.00
21545;BME280;10933;50.754;11.508;2023-08-08T03:04:32;101150.25;;;8.05;100.00
21545;BME280;10933;50.754;11.508;2023-08-08T03:06:58;101153.16;;;8.04;100.00
21545;BME280;10933;50.754;11.508;2023-08-08T03:09:24;101146.13;;;8.09;100.00
21545;BME280;10933;50.754;11.508;2023-08-08T03:11:50;101152.34;;;8.10;100.00
21545;BME280;10933;50.754;11.508;2023-08-08T03:14:16;101148.00;;;8.09;100.00
21545;BME280;10933;50.754;11.508;2023-08-08T03:16:42;101148.19;;;8.07;100.00
21545;BME280;10933;50.754;11.508;2023-08-08T03:19:08;101141.66;;;8.16;100.00
21545;BME280;10933;50.754;11.508;2023-08-08T03:21:34;101151.53;;;8.09;100.00
21545;BME280;10933;50.754;11.508;2023-08-08T03:24:00;101154.00;;;8.11;100.00
21545;BME280;10933;50.754;11.508;2023-08-08T03:26:26;101173.56;;;8.26;100.00
21545;BME280;10933;50.754;11.508;2023-08-08T03:28:53;101180.94;;;8.17;100.00
21545;BME280;10933;50.754;11.508;2023-08-08T03:31:20;101170.59;;;8.14;100.00
21545;BME280;10933;50.754;11.508;2023-08-08T03:33:46;101182.94;;;8.09;100.00
21545;BME280;10933;50.754;11.508;2023-08-08T03:36:13;101183.78;;;8.09;100.00
21545;BME280;10933;50.754;11.508;2023-08-08T03:38:40;101194.59;;;8.16;100.00
21545;BME280;10933;50.754;11.508;2023-08-08T03:41:10;101196.66;;;8.14;100.00
21545;BME280;10933;50.754;11.508;2023-08-08T03:43:36;101192.25;;;8.13;100.00
21545;BME280;10933;50.754;11.508;2023-08-08T03:46:02;101193.13;;;8.13;100.00
21545;BME280;10933;50.754;11.508;2023-08-08T03:48:28;101194.78;;;8.14;100.00
21545;BME280;10933;50.754;11.508;2023-08-08T03:50:55;101202.84;;;8.14;100.00
21545;BME280;10933;50.754;11.508;2023-08-08T03:53:21;101207.44;;;8.20;100.00
21545;BME280;10933;50.754;11.508;2023-08-08T03:55:47;101209.16;;;8.28;100.00
21545;BME280;10933;50.754;11.508;2023-08-08T03:58:13;101208.75;;;8.31;100.00
21545;BME280;10933;50.754;11.508;2023-08-08T04:00:39;101212.59;;;8.43;100.00
21545;BME280;10933;50.754;11.508;2023-08-08T04:03:15;101212.47;;;8.51;100.00
21545;BME280;10933;50.754;11.508;2023-08-08T04:05:45;101206.88;;;8.53;100.00
21545;BME280;10933;50.754;11.508;2023-08-08T04:08:15;101216.34;;;8.49;100.00
21545;BME280;10933;50.754;11.508;2023-08-08T04:10:41;101218.84;;;8.50;100.00
21545;BME280;10933;50.754;11.508;2023-08-08T04:13:07;101221.81;;;8.62;100.00
21545;BME280;10933;50.754;11.508;2023-08-08T04:15:34;101229.13;;;8.68;100.00
21545;BME280;10933;50.754;11.508;2023-08-08T04:18:00;101223.09;;;8.66;100.00
21545;BME280;10933;50.754;11.508;2023-08-08T04:20:26;101236.19;;;8.76;100.00
21545;BME280;10933;50.754;11.508;2023-08-08T04:22:52;101246.31;;;8.74;100.00
21545;BME280;10933;50.754;11.508;2023-08-08T04:25:18;101241.00;;;8.80;100.00
21545;BME280;10933;50.754;11.508;2023-08-08T04:27:45;101248.88;;;8.89;100.00
21545;BME280;10933;50.754;11.508;2023-08-08T04:30:11;101258.03;;;8.94;100.00
21545;BME280;10933;50.754;11.508;2023-08-08T04:32:37;101260.94;;;8.93;100.00
21545;BME280;10933;50.754;11.508;2023-08-08T04:35:03;101284.97;;;8.94;100.00
21545;BME280;10933;50.754;11.508;2023-08-08T04:37:30;101272.97;;;8.97;100.00
21545;BME280;10933;50.754;11.508;2023-08-08T04:39:56;101285.78;;;8.95;100.00
21545;BME280;10933;50.754;11.508;2023-08-08T04:42:22;101295.31;;;8.97;100.00
21545;BME280;10933;50.754;11.508;2023-08-08T04:44:48;101289.72;;;8.99;100.00
21545;BME280;10933;50.754;11.508;2023-08-08T04:47:14;101294.34;;;9.05;100.00
21545;BME280;10933;50.754;11.508;2023-08-08T04:49:40;101293.94;;;9.08;100.00
21545;BME280;10933;50.754;11.508;2023-08-08T04:52:06;101296.66;;;9.14;100.00
21545;BME280;10933;50.754;11.508;2023-08-08T04:54:32;101309.13;;;9.22;100.00
21545;BME280;10933;50.754;11.508;2023-08-08T04:56:58;101308.34;;;9.28;100.00
21545;BME280;10933;50.754;11.508;2023-08-08T04:59:24;101301.09;;;9.29;100.00
21545;BME280;10933;50.754;11.508;2023-08-08T05:01:50;101306.09;;;9.38;100.00
21545;BME280;10933;50.754;11.508;2023-08-08T05:04:18;101310.91;;;9.43;100.00
21545;BME280;10933;50.754;11.508;2023-08-08T05:06:44;101311.31;;;9.47;100.00
21545;BME280;10933;50.754;11.508;2023-08-08T05:09:10;101317.97;;;9.51;100.00
21545;BME280;10933;50.754;11.508;2023-08-08T05:11:36;101313.41;;;9.51;100.00
21545;BME280;10933;50.754;11.508;2023-08-08T05:14:02;101329.59;;;9.58;100.00
21545;BME280;10933;50.754;11.508;2023-08-08T05:16:29;101326.28;;;9.56;100.00
21545;BME280;10933;50.754;11.508;2023-08-08T05:18:55;101319.25;;;9.55;100.00
21545;BME280;10933;50.754;11.508;2023-08-08T05:21:22;101344.13;;;9.63;100.00
21545;BME280;10933;50.754;11.508;2023-08-08T05:23:48;101357.03;;;9.68;100.00
21545;BME280;10933;50.754;11.508;2023-08-08T05:26:15;101322.00;;;9.68;100.00
21545;BME280;10933;50.754;11.508;2023-08-08T05:28:41;101315.56;;;9.69;100.00
21545;BME280;10933;50.754;11.508;2023-08-08T05:31:07;101321.56;;;9.71;100.00
21545;BME280;10933;50.754;11.508;2023-08-08T05:33:33;101332.34;;;9.71;100.00
21545;BME280;10933;50.754;11.508;2023-08-08T05:36:00;101341.47;;;9.70;100.00
21545;BME280;10933;50.754;11.508;2023-08-08T05:38:26;101344.56;;;9.67;100.00
21545;BME280;10933;50.754;11.508;2023-08-08T05:40:52;101337.53;;;9.72;100.00
21545;BME280;10933;50.754;11.508;2023-08-08T05:43:18;101343.16;;;9.78;100.00
21545;BME280;10933;50.754;11.508;2023-08-08T05:45:45;101338.81;;;9.83;100.00
21545;BME280;10933;50.754;11.508;2023-08-08T05:48:11;101349.66;;;9.96;100.00
21545;BME280;10933;50.754;11.508;2023-08-08T05:50:40;101348.19;;;10.00;100.00
21545;BME280;10933;50.754;11.508;2023-08-08T05:53:07;101358.41;;;10.05;100.00
21545;BME280;10933;50.754;11.508;2023-08-08T05:55:33;101369.19;;;10.12;100.00
21545;BME280;10933;50.754;11.508;2023-08-08T05:57:59;101386.06;;;10.34;100.00
21545;BME280;10933;50.754;11.508;2023-08-08T06:00:25;101405.81;;;10.47;100.00
21545;BME280;10933;50.754;11.508;2023-08-08T06:02:51;101424.94;;;10.66;100.00
21545;BME280;10933;50.754;11.508;2023-08-08T06:05:19;101435.53;;;10.74;100.00
21545;BME280;10933;50.754;11.508;2023-08-08T06:07:47;101452.38;;;10.69;100.00
21545;BME280;10933;50.754;11.508;2023-08-08T06:10:13;101474.56;;;10.78;100.00
21545;BME280;10933;50.754;11.508;2023-08-08T06:12:39;101476.88;;;10.81;100.00
21545;BME280;10933;50.754;11.508;2023-08-08T06:15:06;101483.53;;;10.85;100.00
21545;BME280;10933;50.754;11.508;2023-08-08T06:17:32;101500.19;;;11.08;100.00
21545;BME280;10933;50.754;11.508;2023-08-08T06:19:58;101529.66;;;11.30;100.00
21545;BME280;10933;50.754;11.508;2023-08-08T06:22:24;101544.03;;;11.50;100.00
21545;BME280;10933;50.754;11.508;2023-08-08T06:24:51;101553.19;;;11.69;100.00
21545;BME280;10933;50.754;11.508;2023-08-08T06:27:17;101567.72;;;11.88;100.00
21545;BME280;10933;50.754;11.508;2023-08-08T06:29:44;101586.00;;;12.05;100.00
21545;BME280;10933;50.754;11.508;2023-08-08T06:32:10;101602.38;;;12.30;100.00
21545;BME280;10933;50.754;11.508;2023-08-08T06:34:36;101625.81;;;12.63;100.00
21545;BME280;10933;50.754;11.508;2023-08-08T06:37:02;101647.38;;;12.89;100.00
21545;BME280;10933;50.754;11.508;2023-08-08T06:39:28;101666.88;;;13.11;100.00
21545;BME280;10933;50.754;11.508;2023-08-08T06:41:54;101679.66;;;13.42;100.00
21545;BME280;10933;50.754;11.508;2023-08-08T06:44:20;101698.03;;;13.72;100.00
21545;BME280;10933;50.754;11.508;2023-08-08T06:46:47;101705.41;;;13.90;100.00
21545;BME280;10933;50.754;11.508;2023-08-08T06:49:13;101705.66;;;13.88;100.00
21545;BME280;10933;50.754;11.508;2023-08-08T06:51:39;101699.88;;;14.03;100.00
21545;BME280;10933;50.754;11.508;2023-08-08T06:54:05;101700.97;;;14.20;100.00
21545;BME280;10933;50.754;11.508;2023-08-08T06:56:31;101696.56;;;14.26;100.00
21545;BME280;10933;50.754;11.508;2023-08-08T06:58:57;101697.44;;;14.45;100.00
21545;BME280;10933;50.754;11.508;2023-08-08T07:01:24;101701.31;;;14.73;100.00
21545;BME280;10933;50.754;11.508;2023-08-08T07:03:50;101678.38;;;14.69;100.00
21545;BME280;10933;50.754;11.508;2023-08-08T07:06:18;101650.31;;;14.76;100.00
21545;BME280;10933;50.754;11.508;2023-08-08T07:08:44;101596.44;;;14.54;100.00
21545;BME280;10933;50.754;11.508;2023-08-08T07:11:10;101577.41;;;14.72;100.00
21545;BME280;10933;50.754;11.508;2023-08-08T07:13:36;101552.19;;;14.84;100.00
21545;BME280;10933;50.754;11.508;2023-08-08T07:16:03;101523.69;;;15.16;100.00
21545;BME280;10933;50.754;11.508;2023-08-08T07:18:29;101539.50;;;16.48;100.00
21545;BME280;10933;50.754;11.508;2023-08-08T07:20:55;101572.22;;;17.33;100.00
21545;BME280;10933;50.754;11.508;2023-08-08T07:23:22;101457.94;;;17.15;100.00
21545;BME280;10933;50.754;11.508;2023-08-08T07:25:48;101399.00;;;17.53;100.00
21545;BME280;10933;50.754;11.508;2023-08-08T07:28:14;101287.13;;;18.29;100.00
21545;BME280;10933;50.754;11.508;2023-08-08T07:30:41;101008.50;;;17.44;100.00
21545;BME280;10933;50.754;11.508;2023-08-08T07:33:07;100910.75;;;18.51;100.00
21545;BME280;10933;50.754;11.508;2023-08-08T07:35:34;100842.75;;;19.95;100.00
21545;BME280;10933;50.754;11.508;2023-08-08T07:38:00;100737.47;;;18.98;100.00
21545;BME280;10933;50.754;11.508;2023-08-08T07:40:27;100695.47;;;18.17;100.00
21545;BME280;10933;50.754;11.508;2023-08-08T07:42:53;100687.22;;;18.78;100.00
21545;BME280;10933;50.754;11.508;2023-08-08T07:45:19;100644.63;;;18.57;100.00
21545;BME280;10933;50.754;11.508;2023-08-08T07:47:45;100629.81;;;18.84;100.00
21545;BME280;10933;50.754;11.508;2023-08-08T07:50:12;100627.72;;;19.64;100.00
21545;BME280;10933;50.754;11.508;2023-08-08T07:52:40;100608.34;;;18.16;100.00
21545;BME280;10933;50.754;11.508;2023-08-08T07:55:07;100607.78;;;17.53;100.00
21545;BME280;10933;50.754;11.508;2023-08-08T07:57:33;100598.75;;;17.17;100.00
21545;BME280;10933;50.754;11.508;2023-08-08T08:00:05;100605.78;;;17.02;100.00
21545;BME280;10933;50.754;11.508;2023-08-08T08:02:37;100600.66;;;16.64;100.00
21545;BME280;10933;50.754;11.508;2023-08-08T08:05:03;100616.44;;;17.09;100.00
21545;BME280;10933;50.754;11.508;2023-08-08T08:07:34;100607.47;;;17.24;100.00
21545;BME280;10933;50.754;11.508;2023-08-08T08:10:01;100620.06;;;17.50;100.00
21545;BME280;10933;50.754;11.508;2023-08-08T08:12:28;100590.19;;;18.76;100.00
21545;BME280;10933;50.754;11.508;2023-08-08T08:14:55;100595.91;;;18.85;100.00
21545;BME280;10933;50.754;11.508;2023-08-08T08:17:21;100586.94;;;18.53;100.00
21545;BME280;10933;50.754;11.508;2023-08-08T08:19:47;100570.47;;;17.79;100.00
21545;BME280;10933;50.754;11.508;2023-08-08T08:22:13;100570.72;;;17.72;100.00
21545;BME280;10933;50.754;11.508;2023-08-08T08:24:39;100604.25;;;17.57;100.00
21545;BME280;10933;50.754;11.508;2023-08-08T08:27:06;100603.97;;;17.44;100.00
21545;BME280;10933;50.754;11.508;2023-08-08T08:29:32;100587.16;;;16.79;100.00
21545;BME280;10933;50.754;11.508;2023-08-08T08:31:58;100612.19;;;16.71;100.00
21545;BME280;10933;50.754;11.508;2023-08-08T08:34:24;100611.00;;;16.52;100.00
21545;BME280;10933;50.754;11.508;2023-08-08T08:36:51;100602.34;;;16.65;100.00
21545;BME280;10933;50.754;11.508;2023-08-08T08:39:17;100627.22;;;16.84;100.00
21545;BME280;10933;50.754;11.508;2023-08-08T08:41:47;100634.69;;;17.03;100.00
21545;BME280;10933;50.754;11.508;2023-08-08T08:44:16;100622.72;;;16.57;100.00
21545;BME280;10933;50.754;11.508;2023-08-08T08:46:42;100631.16;;;16.56;100.00
21545;BME280;10933;50.754;11.508;2023-08-08T08:49:13;100640.59;;;16.85;100.00
21545;BME280;10933;50.754;11.508;2023-08-08T08:51:39;100651.13;;;17.29;100.00
21545;BME280;10933;50.754;11.508;2023-08-08T08:54:06;100650.09;;;17.55;100.00
21545;BME280;10933;50.754;11.508;2023-08-08T08:56:32;100657.50;;;18.01;100.00
21545;BME280;10933;50.754;11.508;2023-08-08T08:58:59;100649.59;;;18.30;100.00
21545;BME280;10933;50.754;11.508;2023-08-08T09:01:26;100650.41;;;18.25;100.00
21545;BME280;10933;50.754;11.508;2023-08-08T09:03:54;100647.16;;;17.98;100.00
21545;BME280;10933;50.754;11.508;2023-08-08T09:06:22;100645.50;;;17.81;100.00
21545;BME280;10933;50.754;11.508;2023-08-08T09:08:49;100621.75;;;18.02;100.00
21545;BME280;10933;50.754;11.508;2023-08-08T09:11:15;100598.03;;;17.82;100.00
21545;BME280;10933;50.754;11.508;2023-08-08T09:13:42;100604.56;;;17.91;100.00
21545;BME280;10933;50.754;11.508;2023-08-08T09:16:08;100624.75;;;17.90;100.00
21545;BME280;10933;50.754;11.508;2023-08-08T09:18:35;100647.97;;;18.18;100.00
21545;BME280;10933;50.754;11.508;2023-08-08T09:21:04;100655.53;;;18.57;100.00
21545;BME280;10933;50.754;11.508;2023-08-08T09:23:31;100644.13;;;18.09;100.00
21545;BME280;10933;50.754;11.508;2023-08-08T09:25:57;100667.00;;;18.59;100.00
21545;BME280;10933;50.754;11.508;2023-08-08T09:28:24;100658.84;;;19.78;100.00
21545;BME280;10933;50.754;11.508;2023-08-08T09:30:50;100450.44;;;20.70;100.00
21545;BME280;10933;50.754;11.508;2023-08-08T09:33:18;99762.94;;;21.21;100.00
21545;BME280;10933;50.754;11.508;2023-08-08T09:35:44;98872.00;;;21.47;100.00
21545;BME280;10933;50.754;11.508;2023-08-08T09:38:11;99058.53;;;21.05;100.00
21545;BME280;10933;50.754;11.508;2023-08-08T09:40:37;99142.19;;;20.01;100.00
21545;BME280;10933;50.754;11.508;2023-08-08T09:43:04;99165.06;;;19.96;100.00
21545;BME280;10933;50.754;11.508;2023-08-08T09:45:41;99112.69;;;19.54;100.00
21545;BME280;10933;50.754;11.508;2023-08-08T09:48:08;99124.31;;;20.12;100.00
21545;BME280;10933;50.754;11.508;2023-08-08T09:50:34;99065.28;;;20.32;100.00
21545;BME280;10933;50.754;11.508;2023-08-08T09:53:02;99003.22;;;19.97;100.00
21545;BME280;10933;50.754;11.508;2023-08-08T09:55:29;99003.38;;;20.01;100.00
21545;BME280;10933;50.754;11.508;2023-08-08T09:57:57;98958.13;;;20.92;100.00
21545;BME280;10933;50.754;11.508;2023-08-08T10:00:25;98912.75;;;22.15;100.00
21545;BME280;10933;50.754;11.508;2023-08-08T10:02:54;98911.13;;;21.56;100.00
21545;BME280;10933;50.754;11.508;2023-08-08T10:05:20;98908.97;;;21.29;100.00
21545;BME280;10933;50.754;11.508;2023-08-08T10:07:47;98895.84;;;21.80;100.00
21545;BME280;10933;50.754;11.508;2023-08-08T10:10:13;98909.25;;;21.36;100.00
21545;BME280;10933;50.754;11.508;2023-08-08T10:12:40;98859.81;;;21.81;100.00
21545;BME280;10933;50.754;11.508;2023-08-08T10:15:08;98908.75;;;22.24;100.00
21545;BME280;10933;50.754;11.508;2023-08-08T10:17:39;98919.06;;;23.32;100.00
21545;BME280;10933;50.754;11.508;2023-08-08T10:20:09;99009.97;;;22.83;100.00
21545;BME280;10933;50.754;11.508;2023-08-08T10:22:44;99063.53;;;23.38;100.00
21545;BME280;10933;50.754;11.508;2023-08-08T10:25:19;99134.81;;;23.56;100.00
21545;BME280;10933;50.754;11.508;2023-08-08T10:27:48;99018.31;;;22.05;100.00
21545;BME280;10933;50.754;11.508;2023-08-08T10:30:15;99021.25;;;21.34;100.00
21545;BME280;10933;50.754;11.508;2023-08-08T10:32:43;98995.72;;;22.32;100.00
21545;BME280;10933;50.754;11.508;2023-08-08T10:35:12;99054.78;;;21.93;100.00
21545;BME280;10933;50.754;11.508;2023-08-08T10:37:38;99056.13;;;22.08;100.00
21545;BME280;10933;50.754;11.508;2023-08-08T10:40:06;99083.22;;;20.76;100.00
21545;BME280;10933;50.754;11.508;2023-08-08T10:42:40;99035.84;;;20.67;100.00
21545;BME280;10933;50.754;11.508;2023-08-08T10:45:12;99030.09;;;20.60;100.00
21545;BME280;10933;50.754;11.508;2023-08-08T10:47:42;99057.09;;;20.23;100.00
21545;BME280;10933;50.754;11.508;2023-08-08T10:52:53;99057.53;;;20.42;100.00
21545;BME280;10933;50.754;11.508;2023-08-08T10:55:31;99107.91;;;20.67;100.00
21545;BME280;10933;50.754;11.508;2023-08-08T11:00:30;99089.72;;;20.63;100.00
21545;BME280;10933;50.754;11.508;2023-08-08T11:02:58;99091.44;;;20.20;100.00
21545;BME280;10933;50.754;11.508;2023-08-08T11:05:25;99034.09;;;21.42;100.00
21545;BME280;10933;50.754;11.508;2023-08-08T11:07:53;99101.69;;;21.26;100.00
21545;BME280;10933;50.754;11.508;2023-08-08T11:10:21;99094.97;;;21.06;100.00
21545;BME280;10933;50.754;11.508;2023-08-08T11:15:25;99137.13;;;21.31;100.00
21545;BME280;10933;50.754;11.508;2023-08-08T11:17:53;99107.66;;;20.90;100.00
21545;BME280;10933;50.754;11.508;2023-08-08T11:20:21;99015.75;;;21.34;100.00
21545;BME280;10933;50.754;11.508;2023-08-08T11:22:55;99048.13;;;20.61;100.00
21545;BME280;10933;50.754;11.508;2023-08-08T11:25:22;99016.25;;;19.92;100.00
21545;BME280;10933;50.754;11.508;2023-08-08T11:27:54;98947.44;;;19.64;100.00
21545;BME280;10933;50.754;11.508;2023-08-08T11:30:22;98945.19;;;19.40;100.00
21545;BME280;10933;50.754;11.508;2023-08-08T11:32:50;98961.88;;;20.28;100.00
21545;BME280;10933;50.754;11.508;2023-08-08T11:35:23;99054.97;;;21.05;100.00
21545;BME280;10933;50.754;11.508;2023-08-08T11:37:51;99042.44;;;20.27;100.00
21545;BME280;10933;50.754;11.508;2023-08-08T11:40:18;99023.59;;;20.17;100.00
21545;BME280;10933;50.754;11.508;2023-08-08T11:42:46;98979.56;;;20.31;100.00
21545;BME280;10933;50.754;11.508;2023-08-08T11:45:13;98999.19;;;20.50;100.00
21545;BME280;10933;50.754;11.508;2023-08-08T11:47:42;99023.47;;;20.90;100.00
21545;BME280;10933;50.754;11.508;2023-08-08T11:50:10;99061.00;;;21.28;100.00
21545;BME280;10933;50.754;11.508;2023-08-08T11:52:46;99140.13;;;22.09;100.00
21545;BME280;10933;50.754;11.508;2023-08-08T11:55:13;99126.75;;;21.87;100.00
21545;BME280;10933;50.754;11.508;2023-08-08T11:57:42;99083.50;;;21.42;100.00
21545;BME280;10933;50.754;11.508;2023-08-08T12:00:10;99073.75;;;21.24;100.00
21545;BME280;10933;50.754;11.508;2023-08-08T12:02:39;99079.72;;;20.96;100.00
21545;BME280;10933;50.754;11.508;2023-08-08T12:05:07;99068.03;;;20.32;100.00
21545;BME280;10933;50.754;11.508;2023-08-08T12:07:34;99032.81;;;20.13;100.00
21545;BME280;10933;50.754;11.508;2023-08-08T12:10:03;99023.47;;;20.61;100.00
21545;BME280;10933;50.754;11.508;2023-08-08T12:12:32;99042.06;;;21.05;100.00
21545;BME280;10933;50.754;11.508;2023-08-08T12:15:06;99098.19;;;21.08;100.00
21545;BME280;10933;50.754;11.508;2023-08-08T12:17:32;99138.91;;;21.35;100.00
21545;BME280;10933;50.754;11.508;2023-08-08T12:20:04;99139.75;;;21.19;100.00
21545;BME280;10933;50.754;11.508;2023-08-08T12:22:31;99150.00;;;21.09;100.00
21545;BME280;10933;50.754;11.508;2023-08-08T12:24:58;99096.75;;;21.10;100.00
21545;BME280;10933;50.754;11.508;2023-08-08T12:27:24;99074.69;;;20.69;100.00
21545;BME280;10933;50.754;11.508;2023-08-08T12:29:50;99050.06;;;20.90;100.00
21545;BME280;10933;50.754;11.508;2023-08-08T12:32:16;99078.38;;;21.32;100.00
21545;BME280;10933;50.754;11.508;2023-08-08T12:34:42;99089.63;;;20.80;100.00
21545;BME280;10933;50.754;11.508;2023-08-08T12:37:08;99087.44;;;20.65;100.00
21545;BME280;10933;50.754;11.508;2023-08-08T12:39:35;99041.84;;;20.05;100.00
21545;BME280;10933;50.754;11.508;2023-08-08T12:42:01;99012.38;;;20.02;100.00
21545;BME280;10933;50.754;11.508;2023-08-08T12:44:28;98958.50;;;19.76;100.00
21545;BME280;10933;50.754;11.508;2023-08-08T12:46:54;98905.72;;;19.67;100.00
21545;BME280;10933;50.754;11.508;2023-08-08T12:49:20;98831.97;;;19.79;100.00
21545;BME280;10933;50.754;11.508;2023-08-08T12:51:46;98840.44;;;19.57;100.00